Time;durP1;ratioP1;P1;durP2;ratioP2;P2;SDS_P1;SDS_P2;PMS_P1;PMS_P2;Temp;Humidity;BMP_temperature;BMP_pressure;BME280_temperature;BME280_humidity;BME280_pressure;Samples;Min_cycle;Max_cycle;Signal;HPM_P1;HPM_P2
2024/03/27 00:01:10;;;;;;;2.28;1.50;;;12.10;72.00;;;;;;5067703;28;20060;-64
2024/03/27 00:03:36;;;;;;;1.60;1.38;;;12.10;71.90;;;;;;5069709;28;20035;-65
2024/03/27 00:06:04;;;;;;;1.50;1.40;;;12.20;71.90;;;;;;5069600;28;20028;-67
2024/03/27 00:08:30;;;;;;;2.40;1.20;;;12.20;71.80;;;;;;5072425;28;20016;-64
2024/03/27 00:10:55;;;;;;;1.45;1.30;;;12.20;71.70;;;;;;5072703;28;20028;-65
2024/03/27 00:13:21;;;;;;;2.30;1.60;;;12.20;71.60;;;;;;5071311;28;20372;-63
2024/03/27 00:15:51;;;;;;;1.58;1.00;;;12.10;71.60;;;;;;5072096;28;20064;-64
2024/03/27 00:18:16;;;;;;;1.60;1.30;;;12.20;71.80;;;;;;5073440;28;20029;-64
2024/03/27 00:20:42;;;;;;;2.83;1.10;;;12.10;71.80;;;;;;5066807;28;20036;-66
2024/03/27 00:23:08;;;;;;;1.48;1.20;;;12.10;71.80;;;;;;5069382;28;20094;-65
2024/03/27 00:25:33;;;;;;;1.60;1.15;;;12.10;71.80;;;;;;5073532;28;20036;-65
2024/03/27 00:27:59;;;;;;;1.30;1.10;;;12.10;71.80;;;;;;5070673;28;20027;-64
2024/03/27 00:30:25;;;;;;;1.30;1.20;;;12.10;71.80;;;;;;5070911;28;20028;-63
2024/03/27 00:32:51;;;;;;;1.85;1.33;;;12.00;71.70;;;;;;5069954;28;20020;-63
2024/03/27 00:35:17;;;;;;;2.22;1.60;;;12.00;71.90;;;;;;5072439;28;20020;-63
2024/03/27 00:37:43;;;;;;;3.45;1.90;;;11.90;72.00;;;;;;5065449;28;20512;-63
2024/03/27 00:40:09;;;;;;;2.40;1.58;;;11.90;72.00;;;;;;5068368;28;20618;-64
2024/03/27 00:42:35;;;;;;;3.75;1.83;;;11.90;72.00;;;;;;5070703;28;20024;-65
2024/03/27 00:45:00;;;;;;;2.33;1.60;;;11.90;72.00;;;;;;5068630;28;20023;-65
2024/03/27 00:47:26;;;;;;;2.35;1.67;;;11.90;72.00;;;;;;5070713;28;20032;-66
2024/03/27 00:49:52;;;;;;;1.92;1.50;;;12.00;71.80;;;;;;5070679;28;20756;-65
2024/03/27 00:52:18;;;;;;;2.00;1.40;;;12.00;71.80;;;;;;5071062;28;20021;-65
2024/03/27 00:54:43;;;;;;;1.50;1.25;;;12.00;71.70;;;;;;5071603;28;20486;-65
2024/03/27 00:57:09;;;;;;;1.83;1.40;;;12.00;71.60;;;;;;5072229;28;20514;-66
2024/03/27 00:59:35;;;;;;;3.75;1.73;;;12.00;71.60;;;;;;5080240;28;20024;-64
2024/03/27 01:02:01;;;;;;;1.70;1.27;;;11.90;71.70;;;;;;5072107;28;20030;-65
2024/03/27 01:04:27;;;;;;;2.25;1.30;;;11.90;71.70;;;;;;5073735;28;20294;-64
2024/03/27 01:06:52;;;;;;;2.47;1.38;;;11.90;71.80;;;;;;5082939;28;20085;-64
2024/03/27 01:09:18;;;;;;;2.15;1.60;;;11.90;71.70;;;;;;5075366;28;20024;-65
2024/03/27 01:11:44;;;;;;;2.92;1.90;;;11.90;71.70;;;;;;5076744;28;20017;-64
2024/03/27 01:14:10;;;;;;;1.55;1.30;;;11.80;71.70;;;;;;5072695;28;20137;-65
2024/03/27 01:16:36;;;;;;;2.13;1.30;;;11.80;71.90;;;;;;5069585;28;20024;-66
2024/03/27 01:19:02;;;;;;;2.80;1.55;;;11.80;71.80;;;;;;5072619;28;20036;-64
2024/03/27 01:21:27;;;;;;;1.35;1.20;;;11.80;71.80;;;;;;5072454;28;20075;-65
2024/03/27 01:23:54;;;;;;;2.78;1.55;;;11.70;71.90;;;;;;5068401;28;20138;-65
2024/03/27 01:26:19;;;;;;;2.17;1.50;;;11.70;72.10;;;;;;5077582;28;20096;-65
2024/03/27 01:28:45;;;;;;;1.73;1.40;;;11.70;72.10;;;;;;5071385;28;20115;-65
2024/03/27 01:31:11;;;;;;;1.40;1.20;;;11.60;72.10;;;;;;5067556;28;20030;-65
2024/03/27 01:33:37;;;;;;;1.75;1.30;;;11.60;72.10;;;;;;5064600;28;20497;-65
2024/03/27 01:36:02;;;;;;;1.13;1.00;;;11.70;72.20;;;;;;5073269;28;20026;-66
2024/03/27 01:38:28;;;;;;;2.85;1.33;;;11.70;72.20;;;;;;5079061;28;20035;-64
2024/03/27 01:40:54;;;;;;;1.70;1.20;;;11.70;72.30;;;;;;5072915;28;20387;-65
2024/03/27 01:43:19;;;;;;;1.55;1.25;;;11.60;72.20;;;;;;5082179;28;20471;-67
2024/03/27 01:45:45;;;;;;;2.28;1.50;;;11.60;72.20;;;;;;5071991;28;20028;-65
2024/03/27 01:48:11;;;;;;;1.67;1.10;;;11.50;72.30;;;;;;5071655;28;20137;-65
2024/03/27 01:50:37;;;;;;;2.08;1.33;;;11.60;72.40;;;;;;5075052;28;20019;-64
2024/03/27 01:53:03;;;;;;;1.50;1.20;;;11.50;72.40;;;;;;5081715;28;20054;-64
2024/03/27 01:55:29;;;;;;;1.38;1.17;;;11.50;72.40;;;;;;5074542;28;20016;-64
2024/03/27 01:57:56;;;;;;;2.05;1.40;;;11.50;72.50;;;;;;5070890;28;20275;-63
2024/03/27 02:00:25;;;;;;;1.45;1.35;;;11.50;72.50;;;;;;5075396;28;20028;-66
2024/03/27 02:02:51;;;;;;;2.63;1.60;;;11.50;72.50;;;;;;5074929;28;20186;-64
2024/03/27 02:05:17;;;;;;;2.13;1.40;;;11.50;73.10;;;;;;5074559;28;20095;-63
2024/03/27 02:07:44;;;;;;;1.63;1.42;;;11.50;72.60;;;;;;5081093;28;20020;-63
2024/03/27 02:10:10;;;;;;;1.90;1.25;;;11.50;72.60;;;;;;5072065;28;20039;-65
2024/03/27 02:12:39;;;;;;;2.42;1.50;;;11.50;72.50;;;;;;5071417;28;20419;-65
2024/03/27 02:15:05;;;;;;;1.88;1.58;;;11.40;72.50;;;;;;5079116;28;20031;-64
2024/03/27 02:17:31;;;;;;;2.45;1.50;;;11.40;72.60;;;;;;5075088;28;20055;-63
2024/03/27 02:19:56;;;;;;;2.55;1.40;;;11.40;72.60;;;;;;5076984;28;20020;-64
2024/03/27 02:22:24;;;;;;;2.13;1.40;;;11.40;72.60;;;;;;5080273;28;20021;-63
2024/03/27 02:25:09;;;;;;;2.10;1.40;;;11.40;72.60;;;;;;5080675;28;20024;-62
2024/03/27 02:27:35;;;;;;;2.22;1.50;;;11.40;72.60;;;;;;5080804;28;20024;-64
2024/03/27 02:30:01;;;;;;;1.85;1.40;;;11.40;72.50;;;;;;5068092;28;20023;-65
2024/03/27 02:32:27;;;;;;;2.10;1.50;;;11.40;72.50;;;;;;5080828;28;20032;-63
2024/03/27 02:34:53;;;;;;;1.52;1.33;;;11.40;72.60;;;;;;5075950;28;20494;-63
2024/03/27 02:37:19;;;;;;;1.20;1.10;;;11.40;72.70;;;;;;5080011;28;20060;-65
2024/03/27 02:39:45;;;;;;;4.15;1.40;;;11.40;72.70;;;;;;5070095;28;20021;-64
2024/03/27 02:42:11;;;;;;;1.98;1.23;;;11.40;72.70;;;;;;5078079;28;20044;-63
2024/03/27 02:44:36;;;;;;;1.40;1.17;;;11.40;72.70;;;;;;5075583;28;20491;-65
2024/03/27 02:47:02;;;;;;;1.77;1.20;;;11.30;73.30;;;;;;5078149;28;20017;-63
2024/03/27 02:49:27;;;;;;;1.85;1.50;;;11.40;72.80;;;;;;5071750;28;20725;-66
2024/03/27 02:51:54;;;;;;;1.45;1.30;;;11.30;72.80;;;;;;5076730;28;20031;-64
2024/03/27 02:54:19;;;;;;;1.55;1.45;;;11.30;72.90;;;;;;5074362;28;20111;-65
2024/03/27 02:56:45;;;;;;;1.75;1.45;;;11.30;72.90;;;;;;5073942;28;20444;-64
2024/03/27 02:59:10;;;;;;;1.60;1.30;;;11.30;73.00;;;;;;5067206;28;20021;-64
2024/03/27 03:01:36;;;;;;;2.17;1.52;;;11.30;73.00;;;;;;5078744;28;20064;-63
2024/03/27 03:04:01;;;;;;;2.28;1.30;;;11.30;73.00;;;;;;5073372;28;20024;-64
2024/03/27 03:06:27;;;;;;;1.55;1.27;;;11.30;73.00;;;;;;5079611;28;20033;-64
2024/03/27 03:08:52;;;;;;;1.65;1.08;;;11.30;73.00;;;;;;5082069;28;20016;-62
2024/03/27 03:11:18;;;;;;;2.33;1.40;;;11.30;73.00;;;;;;5072641;28;20481;-62
2024/03/27 03:13:44;;;;;;;1.92;1.40;;;11.20;73.10;;;;;;5074121;28;20028;-62
2024/03/27 03:16:09;;;;;;;1.45;1.10;;;11.20;73.20;;;;;;5068506;28;20107;-63
2024/03/27 03:18:35;;;;;;;2.55;1.30;;;11.20;73.20;;;;;;5077311;28;20028;-65
2024/03/27 03:21:02;;;;;;;1.90;1.25;;;11.20;73.30;;;;;;5080659;28;20024;-62
2024/03/27 03:23:29;;;;;;;1.30;1.20;;;11.20;73.40;;;;;;5072675;28;20081;-63
2024/03/27 03:25:54;;;;;;;2.03;1.30;;;11.20;73.40;;;;;;5085713;28;20016;-62
2024/03/27 03:28:20;;;;;;;2.92;1.92;;;11.20;73.40;;;;;;5081605;28;20039;-63
2024/03/27 03:30:45;;;;;;;1.85;1.45;;;11.20;73.40;;;;;;5079468;28;20021;-65
2024/03/27 03:33:12;;;;;;;2.13;1.40;;;11.20;73.40;;;;;;5072723;28;20040;-62
2024/03/27 03:35:37;;;;;;;1.83;1.30;;;11.20;73.40;;;;;;5074618;28;20021;-67
2024/03/27 03:38:03;;;;;;;1.60;1.30;;;11.20;73.50;;;;;;5067869;28;20039;-62
2024/03/27 03:40:29;;;;;;;3.45;1.70;;;11.20;73.60;;;;;;5072321;28;20048;-62
2024/03/27 03:42:55;;;;;;;3.75;1.58;;;11.20;73.60;;;;;;5079684;28;20062;-62
2024/03/27 03:45:20;;;;;;;1.63;1.42;;;11.20;73.70;;;;;;5071276;28;20118;-65
2024/03/27 03:47:46;;;;;;;3.85;1.45;;;11.20;73.70;;;;;;5071687;28;20020;-62
2024/03/27 03:50:11;;;;;;;2.28;1.52;;;11.20;73.80;;;;;;5077934;28;20024;-63
2024/03/27 03:52:37;;;;;;;1.35;1.20;;;11.20;73.80;;;;;;5084013;28;20021;-63
2024/03/27 03:55:03;;;;;;;3.22;1.38;;;11.20;73.80;;;;;;5072520;28;20108;-64
2024/03/27 03:57:29;;;;;;;2.92;1.70;;;11.20;73.90;;;;;;5074360;28;20096;-65
2024/03/27 03:59:55;;;;;;;2.30;1.58;;;11.20;74.00;;;;;;5072604;28;20540;-65
2024/03/27 04:02:20;;;;;;;2.28;1.70;;;11.20;74.00;;;;;;5068785;28;20032;-64
2024/03/27 04:04:46;;;;;;;2.00;1.50;;;11.20;74.00;;;;;;5073479;28;20037;-65
2024/03/27 04:07:11;;;;;;;1.58;1.40;;;11.20;73.90;;;;;;5072833;28;20020;-65
2024/03/27 04:09:37;;;;;;;2.17;1.38;;;11.30;73.90;;;;;;5070486;28;20025;-62
2024/03/27 04:12:03;;;;;;;1.70;1.50;;;11.30;73.90;;;;;;5074031;28;20412;-63
2024/03/27 04:14:29;;;;;;;1.92;1.30;;;11.30;74.00;;;;;;5076690;28;20506;-64
2024/03/27 04:16:54;;;;;;;2.70;1.50;;;11.30;74.00;;;;;;5079525;28;20072;-64
2024/03/27 04:19:20;;;;;;;2.85;1.50;;;11.30;74.00;;;;;;5084842;28;20153;-64
2024/03/27 04:21:45;;;;;;;1.15;1.05;;;11.30;74.00;;;;;;5077333;28;20061;-63
2024/03/27 04:24:11;;;;;;;1.83;1.15;;;11.30;74.00;;;;;;5074771;28;20071;-66
2024/03/27 04:26:36;;;;;;;2.05;1.08;;;11.30;74.10;;;;;;5069445;28;20074;-67
2024/03/27 04:29:02;;;;;;;2.05;1.30;;;11.30;74.10;;;;;;5077232;28;20113;-63
2024/03/27 04:31:28;;;;;;;2.30;1.33;;;11.30;74.10;;;;;;5066913;28;20434;-68
2024/03/27 04:33:53;;;;;;;2.55;1.60;;;11.30;74.20;;;;;;5074131;28;20518;-64
2024/03/27 04:36:20;;;;;;;2.03;1.13;;;11.30;74.20;;;;;;5078396;28;20081;-64
2024/03/27 04:38:46;;;;;;;1.38;1.20;;;11.30;74.20;;;;;;5080688;28;20035;-62
2024/03/27 04:41:12;;;;;;;1.63;1.30;;;11.30;74.30;;;;;;5074318;28;20024;-64
2024/03/27 04:43:39;;;;;;;1.90;1.40;;;11.30;74.30;;;;;;5071811;28;20024;-63
2024/03/27 04:46:06;;;;;;;1.85;1.38;;;11.40;74.30;;;;;;5070138;28;20213;-64
2024/03/27 04:48:31;;;;;;;1.90;1.35;;;11.40;74.30;;;;;;5076120;28;20053;-65
2024/03/27 04:50:58;;;;;;;1.23;1.13;;;11.50;74.30;;;;;;5065542;28;20170;-64
2024/03/27 04:53:23;;;;;;;1.75;1.30;;;11.50;74.20;;;;;;5073336;28;20077;-63
2024/03/27 04:55:58;;;;;;;2.47;1.45;;;11.50;74.20;;;;;;5072994;28;20036;-65
2024/03/27 04:58:23;;;;;;;2.00;1.40;;;11.50;74.20;;;;;;5068985;28;20028;-63
2024/03/27 05:00:49;;;;;;;1.83;1.10;;;11.40;74.30;;;;;;5076813;28;20028;-64
2024/03/27 05:03:16;;;;;;;2.22;1.30;;;11.40;74.30;;;;;;5069589;28;20092;-64
2024/03/27 05:05:45;;;;;;;2.00;1.20;;;11.50;74.40;;;;;;5073511;28;20029;-63
2024/03/27 05:08:11;;;;;;;1.98;1.23;;;11.50;74.40;;;;;;5070798;28;20419;-64
2024/03/27 05:10:38;;;;;;;1.10;1.00;;;11.40;74.50;;;;;;5082809;28;20090;-63
2024/03/27 05:13:04;;;;;;;2.03;1.23;;;11.40;74.50;;;;;;5068415;28;20051;-64
2024/03/27 05:15:30;;;;;;;1.40;1.30;;;11.40;74.60;;;;;;5070022;28;20104;-64
2024/03/27 05:17:56;;;;;;;1.52;1.20;;;11.40;74.80;;;;;;5069926;28;20065;-63
2024/03/27 05:20:22;;;;;;;3.50;1.90;;;11.40;74.80;;;;;;5067643;28;20095;-64
2024/03/27 05:22:48;;;;;;;2.00;1.70;;;11.40;74.90;;;;;;5070244;28;20057;-64
2024/03/27 05:25:13;;;;;;;2.45;1.70;;;11.30;74.90;;;;;;5082570;28;20047;-66
2024/03/27 05:27:39;;;;;;;1.83;1.40;;;11.40;75.00;;;;;;5073530;28;20028;-63
2024/03/27 05:30:05;;;;;;;2.20;1.50;;;11.40;75.00;;;;;;5068748;28;20063;-63
2024/03/27 05:32:31;;;;;;;1.80;1.40;;;11.40;75.10;;;;;;5079942;28;20028;-64
2024/03/27 05:34:57;;;;;;;2.33;1.52;;;11.40;75.10;;;;;;5070224;28;20029;-65
2024/03/27 05:37:22;;;;;;;3.90;1.95;;;11.40;75.20;;;;;;5084369;28;20024;-64
2024/03/27 05:39:48;;;;;;;2.08;1.60;;;11.40;75.30;;;;;;5066559;28;20055;-66
2024/03/27 05:42:13;;;;;;;3.88;2.00;;;11.40;75.50;;;;;;5068599;28;20017;-64
2024/03/27 05:44:39;;;;;;;3.78;2.03;;;11.40;75.70;;;;;;5073035;28;20391;-64
2024/03/27 05:47:04;;;;;;;3.85;1.77;;;11.40;76.00;;;;;;5069078;28;20096;-66
2024/03/27 05:49:30;;;;;;;2.95;1.80;;;11.40;76.00;;;;;;5075726;28;20095;-64
2024/03/27 05:51:56;;;;;;;2.75;1.70;;;11.40;76.20;;;;;;5084661;28;20052;-64
2024/03/27 05:54:22;;;;;;;2.03;1.60;;;11.40;76.60;;;;;;5071162;28;20062;-64
2024/03/27 05:56:47;;;;;;;3.50;1.90;;;11.40;76.60;;;;;;5064299;28;20029;-64
2024/03/27 05:59:13;;;;;;;2.90;1.80;;;11.40;77.00;;;;;;5067370;28;20070;-64
2024/03/27 06:01:39;;;;;;;3.72;2.00;;;11.50;77.00;;;;;;5069231;28;20036;-64
2024/03/27 06:04:04;;;;;;;2.83;1.70;;;11.50;77.20;;;;;;5069346;28;20024;-65
2024/03/27 06:06:30;;;;;;;2.42;1.80;;;11.50;77.30;;;;;;5072497;28;20414;-64
2024/03/27 06:08:55;;;;;;;2.78;1.55;;;11.50;77.40;;;;;;5069829;28;20077;-66
2024/03/27 06:11:21;;;;;;;2.72;2.08;;;11.50;77.30;;;;;;5075864;28;20025;-65
2024/03/27 06:13:48;;;;;;;2.72;2.03;;;11.50;77.80;;;;;;5080740;28;20398;-64
2024/03/27 06:16:14;;;;;;;2.67;1.65;;;11.50;78.00;;;;;;5075087;28;20024;-68
2024/03/27 06:18:40;;;;;;;2.63;2.30;;;11.60;77.90;;;;;;5072084;28;20052;-66
2024/03/27 06:21:06;;;;;;;2.92;2.20;;;11.60;78.30;;;;;;5083021;28;20023;-65
2024/03/27 06:23:31;;;;;;;3.10;2.33;;;11.50;78.40;;;;;;5072752;28;20395;-65
2024/03/27 06:25:58;;;;;;;2.80;2.00;;;11.50;78.70;;;;;;5075928;28;20520;-65
2024/03/27 06:28:24;;;;;;;2.40;1.70;;;11.50;78.80;;;;;;5073458;28;20035;-65
2024/03/27 06:30:57;;;;;;;1.90;1.60;;;11.60;79.30;;;;;;5076344;28;20024;-64
2024/03/27 06:33:24;;;;;;;2.72;1.90;;;11.60;78.60;;;;;;5067485;28;20024;-66
2024/03/27 06:35:51;;;;;;;3.72;2.33;;;11.60;78.60;;;;;;5071383;28;20507;-64
2024/03/27 06:38:20;;;;;;;2.45;2.10;;;11.60;78.90;;;;;;5074622;28;20033;-66
2024/03/27 06:40:46;;;;;;;2.78;2.20;;;11.60;79.20;;;;;;5067527;28;20033;-65
2024/03/27 06:43:15;;;;;;;3.35;2.78;;;11.50;79.20;;;;;;5085275;28;20394;-64
2024/03/27 06:45:44;;;;;;;2.80;2.20;;;11.60;79.70;;;;;;5079423;28;20024;-66
2024/03/27 06:48:10;;;;;;;3.90;2.40;;;11.60;79.40;;;;;;5074550;28;20050;-65
2024/03/27 06:50:35;;;;;;;2.83;2.25;;;11.50;79.40;;;;;;5078645;28;20103;-65
2024/03/27 06:53:01;;;;;;;2.80;2.15;;;11.50;79.50;;;;;;5070435;28;20451;-64
2024/03/27 06:55:27;;;;;;;2.88;2.30;;;11.50;79.60;;;;;;5068355;28;20040;-67
2024/03/27 06:57:52;;;;;;;2.97;1.73;;;11.60;79.50;;;;;;5069959;28;20056;-67
2024/03/27 07:00:18;;;;;;;3.17;2.38;;;11.60;79.30;;;;;;5086026;28;20094;-66
2024/03/27 07:02:47;;;;;;;3.78;2.80;;;11.60;79.60;;;;;;5070657;28;20036;-63
2024/03/27 07:05:13;;;;;;;3.08;2.30;;;11.50;79.90;;;;;;5077445;28;20025;-66
2024/03/27 07:07:40;;;;;;;2.90;2.17;;;11.50;80.60;;;;;;5072020;28;20062;-67
2024/03/27 07:10:06;;;;;;;3.22;2.47;;;11.50;79.90;;;;;;5072489;28;20499;-65
2024/03/27 07:12:32;;;;;;;3.20;2.40;;;11.50;80.00;;;;;;5071129;28;20368;-67
2024/03/27 07:14:57;;;;;;;3.28;2.10;;;11.40;80.00;;;;;;5077315;28;20065;-65
2024/03/27 07:17:23;;;;;;;2.85;2.08;;;11.50;80.10;;;;;;5071500;28;20040;-66
2024/03/27 07:19:48;;;;;;;4.03;2.47;;;11.40;80.20;;;;;;5068356;28;20047;-67
2024/03/27 07:22:17;;;;;;;4.97;3.30;;;11.30;80.10;;;;;;5069091;28;20032;-66
2024/03/27 07:24:43;;;;;;;3.80;2.78;;;11.30;80.30;;;;;;5071214;28;20490;-67
2024/03/27 07:27:09;;;;;;;3.78;2.70;;;11.20;80.30;;;;;;5070829;28;20021;-64
2024/03/27 07:29:35;;;;;;;2.72;2.20;;;11.20;80.40;;;;;;5103148;28;20017;-64
2024/03/27 07:32:02;;;;;;;3.45;2.50;;;11.20;80.40;;;;;;5070222;28;20043;-67
2024/03/27 07:34:27;;;;;;;2.45;1.75;;;11.20;80.50;;;;;;5071297;28;20060;-65
2024/03/27 07:36:53;;;;;;;2.30;1.70;;;11.20;80.50;;;;;;5069521;28;20049;-66
2024/03/27 07:39:19;;;;;;;2.70;2.00;;;11.20;80.50;;;;;;5066458;28;20024;-67
2024/03/27 07:41:45;;;;;;;5.28;3.35;;;11.10;80.50;;;;;;5065157;28;20127;-62
2024/03/27 07:44:10;;;;;;;5.82;3.42;;;11.10;80.80;;;;;;5072262;28;20029;-65
2024/03/27 07:46:36;;;;;;;3.35;2.47;;;11.00;81.00;;;;;;5069025;28;20082;-66
2024/03/27 07:49:02;;;;;;;5.38;3.75;;;10.90;81.10;;;;;;5069232;28;20525;-65
2024/03/27 07:51:27;;;;;;;5.45;3.60;;;10.80;81.40;;;;;;5071999;28;20501;-66
2024/03/27 07:53:53;;;;;;;5.40;3.40;;;10.70;81.40;;;;;;5068450;28;20103;-68
2024/03/27 07:56:18;;;;;;;5.38;3.83;;;10.80;81.60;;;;;;5101619;27;20055;-65
2024/03/27 07:58:44;;;;;;;5.68;4.05;;;10.60;82.00;;;;;;5069453;28;20032;-67
2024/03/27 08:01:10;;;;;;;4.35;3.10;;;10.60;82.20;;;;;;5067707;28;20032;-66
2024/03/27 08:03:35;;;;;;;3.83;2.80;;;10.60;82.20;;;;;;5068336;28;20036;-65
2024/03/27 08:06:02;;;;;;;5.32;3.55;;;10.60;82.20;;;;;;5069156;28;20082;-63
2024/03/27 08:08:28;;;;;;;3.85;2.85;;;10.60;82.20;;;;;;5069093;28;20471;-66
2024/03/27 08:11:01;;;;;;;3.42;2.40;;;10.60;82.10;;;;;;5071253;28;20085;-65
2024/03/27 08:13:27;;;;;;;3.28;2.20;;;10.60;82.00;;;;;;5070318;28;20107;-63
2024/03/27 08:15:53;;;;;;;3.25;2.00;;;10.60;82.00;;;;;;5069460;28;20712;-65
2024/03/27 08:18:18;;;;;;;2.05;1.73;;;10.70;82.00;;;;;;5066732;28;20450;-67
2024/03/27 08:20:54;;;;;;;2.38;1.90;;;10.70;81.90;;;;;;5068316;28;20095;-65
2024/03/27 08:23:20;;;;;;;3.47;2.17;;;10.70;81.90;;;;;;5066378;28;20047;-66
2024/03/27 08:25:46;;;;;;;4.22;2.72;;;10.70;82.00;;;;;;5073658;28;20033;-66
2024/03/27 08:28:11;;;;;;;2.97;2.38;;;10.70;82.00;;;;;;5070137;28;20036;-66
2024/03/27 08:30:41;;;;;;;3.83;2.47;;;10.70;82.20;;;;;;5071665;28;20051;-67
2024/03/27 08:33:07;;;;;;;3.92;3.13;;;10.60;82.10;;;;;;5063361;28;20206;-66
2024/03/27 08:35:35;;;;;;;3.72;3.00;;;10.60;82.20;;;;;;5061871;28;20055;-66
2024/03/27 08:38:00;;;;;;;3.90;2.85;;;10.50;82.30;;;;;;5066313;28;20078;-65
2024/03/27 08:40:26;;;;;;;3.83;2.78;;;10.50;82.40;;;;;;5068890;28;20024;-66
2024/03/27 08:42:52;;;;;;;3.17;2.40;;;10.50;82.50;;;;;;5068861;28;20527;-66
2024/03/27 08:45:18;;;;;;;3.28;2.40;;;10.50;82.50;;;;;;5067357;28;20100;-66
2024/03/27 08:47:44;;;;;;;3.80;2.22;;;10.60;82.40;;;;;;5063087;28;20036;-65
2024/03/27 08:50:13;;;;;;;4.00;2.83;;;10.60;82.20;;;;;;5068127;28;20020;-65
2024/03/27 08:52:38;;;;;;;5.53;3.78;;;10.70;82.10;;;;;;5069923;28;20032;-67
2024/03/27 08:55:04;;;;;;;4.40;3.17;;;10.70;82.10;;;;;;5069116;28;20040;-66
2024/03/27 08:57:30;;;;;;;5.60;3.80;;;10.80;82.00;;;;;;5070805;28;20028;-67
2024/03/27 08:59:55;;;;;;;5.78;3.90;;;10.80;81.90;;;;;;5065008;28;20032;-65
2024/03/27 09:02:21;;;;;;;5.00;3.50;;;10.80;82.00;;;;;;5067360;28;20038;-67
2024/03/27 09:04:49;;;;;;;5.22;3.80;;;10.90;82.00;;;;;;5065002;28;20047;-65
2024/03/27 09:07:15;;;;;;;6.00;4.10;;;11.00;81.90;;;;;;5069510;28;20056;-66
2024/03/27 09:09:41;;;;;;;5.88;3.78;;;11.00;81.80;;;;;;5071966;28;20109;-66
2024/03/27 09:12:07;;;;;;;4.90;3.50;;;11.10;81.70;;;;;;5062468;28;20048;-64
2024/03/27 09:14:32;;;;;;;8.35;5.30;;;11.10;81.60;;;;;;5066472;28;21096;-66
2024/03/27 09:16:58;;;;;;;7.45;5.70;;;11.20;81.70;;;;;;5066937;28;20036;-64
2024/03/27 09:19:23;;;;;;;10.02;6.90;;;11.10;81.80;;;;;;5055890;28;20043;-65
2024/03/27 09:21:49;;;;;;;9.70;6.78;;;11.10;82.00;;;;;;5060438;28;20036;-66
2024/03/27 09:24:14;;;;;;;8.35;6.22;;;11.00;82.40;;;;;;5063682;28;20025;-65
2024/03/27 09:26:40;;;;;;;13.02;8.38;;;11.00;82.50;;;;;;5060968;28;20329;-64
2024/03/27 09:29:06;;;;;;;11.43;7.20;;;10.90;83.00;;;;;;5067305;28;20020;-67
2024/03/27 09:31:31;;;;;;;14.43;9.30;;;10.90;83.30;;;;;;5064624;28;20025;-64
2024/03/27 09:33:58;;;;;;;9.98;7.40;;;10.80;83.80;;;;;;5067133;28;20032;-65
2024/03/27 09:36:26;;;;;;;10.13;6.80;;;10.70;83.90;;;;;;5063856;28;20020;-66
2024/03/27 09:38:51;;;;;;;8.32;5.72;;;10.70;83.90;;;;;;5060991;28;20028;-66
2024/03/27 09:41:17;;;;;;;11.18;6.25;;;10.80;83.90;;;;;;5062797;28;20039;-67
2024/03/27 09:43:46;;;;;;;9.02;6.30;;;10.80;83.70;;;;;;5063631;28;20104;-67
2024/03/27 09:46:11;;;;;;;9.48;6.78;;;10.80;83.80;;;;;;5064827;28;20332;-65
2024/03/27 09:48:42;;;;;;;7.70;5.43;;;10.80;83.80;;;;;;5064262;28;20475;-66
2024/03/27 09:51:08;;;;;;;8.00;5.72;;;10.80;83.70;;;;;;5061343;28;20074;-67
2024/03/27 09:53:40;;;;;;;7.82;5.63;;;10.90;83.70;;;;;;5065152;28;20021;-67
2024/03/27 09:56:07;;;;;;;7.72;5.05;;;11.00;83.70;;;;;;5059109;28;20032;-66
2024/03/27 09:58:33;;;;;;;8.98;6.35;;;11.00;83.50;;;;;;5065888;28;20455;-66
2024/03/27 10:00:59;;;;;;;9.00;6.50;;;11.10;83.60;;;;;;5061005;28;20055;-66
2024/03/27 10:03:24;;;;;;;7.97;5.78;;;11.10;83.70;;;;;;5062964;28;20025;-67
2024/03/27 10:05:56;;;;;;;6.63;4.63;;;11.00;83.70;;;;;;5062722;28;20029;-64
2024/03/27 10:08:24;;;;;;;6.25;4.00;;;11.10;83.60;;;;;;5060583;28;20017;-67
2024/03/27 10:10:50;;;;;;;4.70;3.45;;;11.10;83.50;;;;;;5062991;28;20100;-64
2024/03/27 10:13:20;;;;;;;12.50;7.90;;;11.20;83.40;;;;;;5065103;28;20451;-67
2024/03/27 10:15:48;;;;;;;10.73;7.38;;;11.10;83.90;;;;;;5067173;28;20419;-66
2024/03/27 10:18:14;;;;;;;8.35;6.18;;;11.00;84.00;;;;;;5066661;28;20127;-67
2024/03/27 10:20:42;;;;;;;9.75;6.35;;;11.00;84.20;;;;;;5066028;28;20028;-66
2024/03/27 10:23:09;;;;;;;8.27;6.05;;;11.00;84.30;;;;;;5059098;28;20028;-64
2024/03/27 10:25:38;;;;;;;6.97;4.60;;;10.90;84.30;;;;;;5066127;28;20099;-66
2024/03/27 10:28:06;;;;;;;6.13;3.97;;;11.00;84.40;;;;;;5067692;28;20016;-63
2024/03/27 10:30:32;;;;;;;5.40;3.88;;;10.90;84.30;;;;;;5069312;28;20020;-67
2024/03/27 10:32:58;;;;;;;5.18;2.80;;;10.90;84.60;;;;;;5064699;28;20024;-65
2024/03/27 10:35:32;;;;;;;4.95;2.95;;;11.00;84.30;;;;;;5066145;28;20020;-67
2024/03/27 10:37:59;;;;;;;4.47;2.90;;;11.10;84.20;;;;;;5068763;28;20494;-66
2024/03/27 10:40:25;;;;;;;4.55;3.03;;;11.10;84.20;;;;;;5068757;28;20713;-66
2024/03/27 10:43:22;;;;;;;6.15;3.42;;;11.00;85.00;;;;;;5063948;28;20025;-65
2024/03/27 10:45:49;;;;;;;4.90;2.75;;;11.00;84.30;;;;;;5065327;28;20024;-67
2024/03/27 10:48:16;;;;;;;4.03;2.55;;;11.10;84.20;;;;;;5064776;28;20657;-66
2024/03/27 10:50:43;;;;;;;4.82;2.50;;;11.00;84.20;;;;;;5066921;28;20025;-66
2024/03/27 10:53:11;;;;;;;3.92;2.70;;;11.10;84.10;;;;;;5069777;28;20761;-66
2024/03/27 10:55:39;;;;;;;4.97;3.08;;;11.10;84.00;;;;;;5068361;28;20020;-64
2024/03/27 10:58:11;;;;;;;4.85;2.65;;;11.10;84.00;;;;;;5068430;28;20522;-66
2024/03/27 11:00:39;;;;;;;3.53;2.20;;;11.10;84.00;;;;;;5066757;28;20569;-67
2024/03/27 11:03:05;;;;;;;3.63;2.08;;;11.20;84.00;;;;;;5069984;28;20051;-66
2024/03/27 11:05:31;;;;;;;4.30;2.80;;;11.20;83.80;;;;;;5065504;28;20024;-66
2024/03/27 11:08:00;;;;;;;5.03;3.20;;;11.30;83.70;;;;;;5067238;28;20024;-66
2024/03/27 11:10:27;;;;;;;3.90;3.05;;;11.20;83.80;;;;;;5056695;28;20536;-67
2024/03/27 11:12:57;;;;;;;3.60;2.50;;;11.10;84.00;;;;;;5068687;28;20016;-65
2024/03/27 11:15:22;;;;;;;5.13;2.90;;;11.20;84.10;;;;;;5069875;28;20020;-65
2024/03/27 11:17:49;;;;;;;6.28;2.95;;;11.20;84.10;;;;;;5065817;28;20674;-65
2024/03/27 11:20:15;;;;;;;4.20;2.90;;;11.20;84.10;;;;;;5062093;28;20024;-66
2024/03/27 11:22:46;;;;;;;5.35;2.90;;;11.20;84.10;;;;;;5069461;28;20052;-64
2024/03/27 11:25:12;;;;;;;4.35;2.60;;;11.20;84.10;;;;;;5063828;28;20093;-66
2024/03/27 11:27:38;;;;;;;4.03;2.40;;;11.30;84.10;;;;;;5059135;28;20028;-67
2024/03/27 11:30:04;;;;;;;3.78;2.53;;;11.30;84.10;;;;;;5069126;28;20020;-66
2024/03/27 11:32:39;;;;;;;4.55;2.40;;;11.30;84.10;;;;;;5055983;28;20039;-65
2024/03/27 11:35:07;;;;;;;2.88;1.90;;;11.30;84.80;;;;;;5065217;28;20020;-65
2024/03/27 11:37:36;;;;;;;4.53;3.17;;;11.40;84.10;;;;;;5068252;28;20023;-64
2024/03/27 11:40:02;;;;;;;7.10;3.72;;;11.30;84.10;;;;;;5067420;28;20032;-65
2024/03/27 11:42:30;;;;;;;6.28;3.00;;;11.20;84.30;;;;;;5067162;28;20386;-66
2024/03/27 11:44:56;;;;;;;4.57;3.33;;;11.20;84.50;;;;;;5064791;28;20043;-66
2024/03/27 11:47:22;;;;;;;4.35;2.80;;;11.10;84.60;;;;;;5069567;28;20020;-67
2024/03/27 11:49:48;;;;;;;4.05;2.58;;;11.20;84.70;;;;;;5063622;28;20038;-64
2024/03/27 11:52:13;;;;;;;4.45;2.90;;;11.10;84.70;;;;;;5064795;28;20029;-65
2024/03/27 11:54:39;;;;;;;4.63;2.75;;;11.10;84.70;;;;;;5067691;28;20470;-64
2024/03/27 11:57:05;;;;;;;4.50;2.30;;;11.10;84.70;;;;;;5070201;28;20047;-67
2024/03/27 11:59:31;;;;;;;4.03;2.17;;;11.10;84.70;;;;;;5062845;28;20028;-67
2024/03/27 12:02:00;;;;;;;5.28;3.22;;;11.10;84.70;;;;;;5059682;28;20024;-66
2024/03/27 12:04:27;;;;;;;4.75;3.20;;;11.20;84.70;;;;;;5067348;28;20021;-65
2024/03/27 12:06:53;;;;;;;4.80;3.17;;;11.10;84.90;;;;;;5068670;28;20730;-63
2024/03/27 12:09:20;;;;;;;4.20;2.28;;;11.00;85.00;;;;;;5064164;28;20045;-66
2024/03/27 12:11:45;;;;;;;3.25;2.22;;;11.00;85.00;;;;;;5069705;28;20054;-66
2024/03/27 12:14:18;;;;;;;4.10;2.00;;;11.10;84.90;;;;;;5067936;28;20056;-65
2024/03/27 12:16:44;;;;;;;2.50;1.73;;;11.20;84.80;;;;;;5062955;28;20525;-66
2024/03/27 12:19:10;;;;;;;4.35;2.60;;;11.30;84.50;;;;;;5068079;28;20123;-62
2024/03/27 12:21:38;;;;;;;3.88;2.70;;;11.30;84.50;;;;;;5068292;28;20060;-67
2024/03/27 12:24:04;;;;;;;4.03;2.50;;;11.40;84.40;;;;;;5067317;28;20032;-66
2024/03/27 12:26:30;;;;;;;4.07;2.42;;;11.40;84.20;;;;;;5060479;28;20078;-64
2024/03/27 12:28:55;;;;;;;3.35;2.40;;;11.40;84.20;;;;;;5068061;28;20070;-67
2024/03/27 12:31:27;;;;;;;3.90;1.95;;;11.40;84.10;;;;;;5064555;28;20032;-65
2024/03/27 12:33:52;;;;;;;3.25;1.83;;;11.50;84.00;;;;;;5068804;28;20040;-66
2024/03/27 12:36:18;;;;;;;2.97;2.25;;;11.50;83.90;;;;;;5069077;28;20394;-66
2024/03/27 12:38:44;;;;;;;4.15;2.47;;;11.60;83.80;;;;;;5073613;28;20036;-64
2024/03/27 12:41:10;;;;;;;4.03;2.95;;;11.50;83.60;;;;;;5066941;28;20391;-65